createdAt,value
2018-09-27T00:01:21.263Z,10.50
2018-09-27T00:03:25.742Z,10.50
2018-09-27T00:05:30.276Z,10.50
2018-09-27T00:07:34.867Z,10.50
2018-09-27T00:09:39.331Z,10.50
2018-09-27T00:11:43.832Z,10.40
2018-09-27T00:13:48.314Z,10.40
2018-09-27T00:15:53.306Z,10.40
2018-09-27T00:17:58.454Z,10.40
2018-09-27T00:20:02.918Z,10.40
2018-09-27T00:22:07.499Z,10.30
2018-09-27T00:24:11.950Z,10.30
2018-09-27T00:26:16.472Z,10.30
2018-09-27T00:28:21.026Z,10.30
2018-09-27T00:30:25.519Z,10.30
2018-09-27T00:32:30.132Z,10.30
2018-09-27T00:34:34.639Z,10.30
2018-09-27T00:36:39.191Z,10.20
2018-09-27T00:38:43.685Z,10.20
2018-09-27T00:40:48.186Z,10.20
2018-09-27T00:42:52.715Z,10.20
2018-09-27T00:44:57.863Z,10.20
2018-09-27T00:47:02.360Z,10.20
2018-09-27T00:49:06.905Z,10.20
2018-09-27T00:51:11.412Z,10.20
2018-09-27T00:53:15.994Z,10.20
2018-09-27T00:55:20.482Z,10.20
2018-09-27T00:57:24.958Z,10.10
2018-09-27T00:59:29.499Z,10.10
2018-09-27T01:01:34.002Z,10.10
2018-09-27T01:03:38.830Z,10.10
2018-09-27T01:05:43.461Z,10.10
2018-09-27T01:07:47.990Z,10.10
2018-09-27T01:09:52.469Z,10.10
2018-09-27T01:11:56.971Z,10.10
2018-09-27T01:14:01.498Z,10.10
2018-09-27T01:16:06.155Z,10.10
2018-09-27T01:18:10.654Z,10.10
2018-09-27T01:20:15.209Z,10.10
2018-09-27T01:22:19.791Z,10.10
2018-09-27T01:24:24.275Z,10.00
2018-09-27T01:26:28.788Z,10.00
2018-09-27T01:28:33.377Z,10.00
2018-09-27T01:30:38.975Z,10.00
2018-09-27T01:32:43.487Z,10.00
2018-09-27T01:34:47.974Z,10.00
2018-09-27T01:36:52.467Z,9.90
2018-09-27T01:38:56.974Z,9.90
2018-09-27T01:41:01.480Z,9.90
2018-09-27T01:43:06.219Z,9.90
2018-09-27T01:45:10.735Z,9.90
2018-09-27T01:47:16.176Z,9.90
2018-09-27T01:49:20.649Z,9.90
2018-09-27T01:51:25.147Z,9.90
2018-09-27T01:53:29.662Z,9.80
2018-09-27T01:55:34.145Z,9.80
2018-09-27T01:57:39.363Z,9.80
2018-09-27T01:59:43.879Z,9.80
2018-09-27T02:01:48.411Z,9.80
2018-09-27T02:03:52.907Z,9.80
2018-09-27T02:05:57.395Z,9.80
2018-09-27T02:08:02.228Z,9.80
2018-09-27T02:10:06.778Z,9.80
2018-09-27T02:12:11.230Z,9.70
2018-09-27T02:14:15.803Z,9.70
2018-09-27T02:16:20.239Z,9.70
2018-09-27T02:18:24.727Z,9.70
2018-09-27T02:20:29.175Z,9.70
2018-09-27T02:22:33.843Z,9.70
2018-09-27T02:24:38.335Z,9.70
2018-09-27T02:26:42.858Z,9.70
2018-09-27T02:28:47.341Z,9.70
2018-09-27T02:30:51.892Z,9.70
2018-09-27T02:32:56.415Z,9.70
2018-09-27T02:35:00.883Z,9.70
2018-09-27T02:37:05.420Z,9.70
2018-09-27T02:39:11.150Z,9.70
2018-09-27T02:41:15.673Z,9.70
2018-09-27T02:43:20.130Z,9.70
2018-09-27T02:45:24.574Z,9.70
2018-09-27T02:47:29.414Z,9.70
2018-09-27T02:49:34.103Z,9.70
2018-09-27T02:51:38.540Z,9.60
2018-09-27T02:53:43.083Z,9.60
2018-09-27T02:55:47.543Z,9.60
2018-09-27T02:57:52.021Z,9.60
2018-09-27T02:59:56.486Z,9.60
2018-09-27T03:02:00.947Z,9.60
2018-09-27T03:04:05.466Z,9.50
2018-09-27T03:06:09.906Z,9.50
2018-09-27T03:08:15.530Z,9.50
2018-09-27T03:10:19.998Z,9.50
2018-09-27T03:12:24.482Z,9.50
2018-09-27T03:14:28.993Z,9.50
2018-09-27T03:16:33.407Z,9.50
2018-09-27T03:18:37.902Z,9.50
2018-09-27T03:20:42.481Z,9.40
2018-09-27T03:22:46.946Z,9.40
2018-09-27T03:24:51.423Z,9.40
2018-09-27T03:26:55.884Z,9.40
2018-09-27T03:29:00.319Z,9.40
2018-09-27T03:31:04.807Z,9.40
2018-09-27T03:33:09.342Z,9.40
2018-09-27T03:35:13.803Z,9.40
2018-09-27T03:37:18.291Z,9.30
2018-09-27T03:39:22.765Z,9.30
2018-09-27T03:41:27.295Z,9.30
2018-09-27T03:43:31.748Z,9.30
2018-09-27T03:45:36.219Z,9.30
2018-09-27T03:47:40.686Z,9.30
2018-09-27T03:49:45.231Z,9.30
2018-09-27T03:51:49.846Z,9.30
2018-09-27T03:53:54.331Z,9.30
2018-09-27T03:55:58.810Z,9.30
2018-09-27T03:58:03.279Z,9.30
2018-09-27T04:00:08.654Z,9.30
2018-09-27T04:02:13.135Z,9.30
2018-09-27T04:04:17.664Z,9.30
2018-09-27T04:06:22.095Z,9.30
2018-09-27T04:08:26.562Z,9.30
2018-09-27T04:10:31.027Z,9.30
2018-09-27T04:12:36.083Z,9.30
2018-09-27T04:14:40.613Z,9.30
2018-09-27T04:16:45.170Z,9.30
2018-09-27T04:18:49.649Z,9.30
2018-09-27T04:20:54.115Z,9.20
2018-09-27T04:22:58.574Z,9.20
2018-09-27T04:25:03.065Z,9.20
2018-09-27T04:27:07.759Z,9.20
2018-09-27T04:29:12.239Z,9.20
2018-09-27T04:31:16.823Z,9.20
2018-09-27T04:33:21.254Z,9.20
2018-09-27T04:35:25.962Z,9.20
2018-09-27T04:37:30.431Z,9.20
2018-09-27T04:39:36.041Z,9.20
2018-09-27T04:41:40.527Z,9.10
2018-09-27T04:43:47.034Z,9.10
2018-09-27T04:45:51.813Z,9.10
2018-09-27T04:47:56.266Z,9.10
2018-09-27T04:50:00.790Z,9.10
2018-09-27T04:52:05.241Z,9.10
2018-09-27T04:54:09.728Z,9.10
2018-09-27T04:56:14.190Z,9.10
2018-09-27T04:58:18.644Z,9.00
2018-09-27T05:00:23.203Z,9.00
2018-09-27T05:02:27.640Z,9.00
2018-09-27T05:04:32.135Z,9.00
2018-09-27T05:06:36.590Z,9.00
2018-09-27T05:08:41.038Z,9.00
2018-09-27T05:10:45.523Z,9.00
2018-09-27T05:12:49.953Z,9.00
2018-09-27T05:14:54.471Z,9.00
2018-09-27T05:16:58.940Z,9.00
2018-09-27T05:19:03.436Z,9.00
2018-09-27T05:21:07.919Z,9.00
2018-09-27T05:23:12.389Z,9.00
2018-09-27T05:25:16.894Z,8.90
2018-09-27T05:27:21.404Z,9.00
2018-09-27T05:29:25.818Z,9.00
2018-09-27T05:31:30.277Z,8.90
2018-09-27T05:33:34.758Z,8.90
2018-09-27T05:35:39.215Z,8.90
2018-09-27T05:37:43.675Z,8.90
2018-09-27T05:39:48.870Z,8.90
2018-09-27T05:41:53.338Z,8.90
2018-09-27T05:43:57.751Z,8.90
2018-09-27T05:46:02.304Z,8.90
2018-09-27T05:48:07.517Z,8.90
2018-09-27T05:50:11.980Z,8.90
2018-09-27T05:52:16.975Z,8.90
2018-09-27T05:54:21.399Z,8.90
2018-09-27T05:56:25.904Z,8.80
2018-09-27T05:58:30.971Z,8.80
2018-09-27T06:00:35.483Z,8.80
2018-09-27T06:02:40.004Z,8.80
2018-09-27T06:04:44.497Z,8.80
2018-09-27T06:06:48.967Z,8.80
2018-09-27T06:08:53.575Z,8.80
2018-09-27T06:10:58.119Z,8.80
2018-09-27T06:13:02.639Z,8.80
2018-09-27T06:15:07.235Z,8.80
2018-09-27T06:17:11.682Z,8.80
2018-09-27T06:19:17.251Z,8.80
2018-09-27T06:21:21.723Z,8.80
2018-09-27T06:23:26.191Z,8.80
2018-09-27T06:25:30.807Z,8.80
2018-09-27T06:27:35.319Z,8.80
2018-09-27T06:29:39.803Z,8.80
2018-09-27T06:31:44.610Z,8.90
2018-09-27T06:33:49.062Z,8.80
2018-09-27T06:35:53.600Z,8.90
2018-09-27T06:37:58.064Z,8.90
2018-09-27T06:40:02.554Z,8.90
2018-09-27T06:42:07.168Z,9.00
2018-09-27T06:44:11.594Z,9.00
2018-09-27T06:46:17.268Z,9.00
2018-09-27T06:48:21.743Z,9.00
2018-09-27T06:50:26.323Z,9.00
2018-09-27T06:52:30.775Z,9.00
2018-09-27T06:54:36.199Z,9.00
2018-09-27T06:56:40.792Z,9.00
2018-09-27T06:58:45.182Z,9.10
2018-09-27T07:00:49.999Z,9.10
2018-09-27T07:02:55.047Z,9.10
2018-09-27T07:04:59.540Z,9.10
2018-09-27T07:07:03.989Z,9.10
2018-09-27T07:09:11.567Z,9.10
2018-09-27T07:11:16.297Z,9.20
2018-09-27T07:13:20.746Z,9.20
2018-09-27T07:15:25.172Z,9.30
2018-09-27T07:17:29.619Z,9.30
2018-09-27T07:19:34.122Z,9.30
2018-09-27T07:21:38.672Z,9.40
2018-09-27T07:23:43.136Z,9.30
2018-09-27T07:25:47.657Z,9.40
2018-09-27T07:27:52.206Z,9.40
2018-09-27T07:29:58.037Z,9.50
2018-09-27T07:32:02.551Z,9.50
2018-09-27T07:34:07.271Z,9.50
2018-09-27T07:36:11.793Z,9.60
2018-09-27T07:38:16.269Z,9.60
2018-09-27T07:40:21.035Z,9.70
2018-09-27T07:42:25.499Z,9.70
2018-09-27T07:44:29.939Z,9.80
2018-09-27T07:46:34.690Z,9.80
2018-09-27T07:48:39.278Z,9.80
2018-09-27T07:50:43.676Z,9.90
2018-09-27T07:52:48.147Z,10.00
2018-09-27T07:54:52.773Z,10.00
2018-09-27T07:56:57.129Z,10.10
2018-09-27T07:59:01.631Z,10.20
2018-09-27T08:01:06.075Z,10.30
2018-09-27T08:03:10.692Z,10.40
2018-09-27T08:05:15.166Z,10.50
2018-09-27T08:07:19.769Z,10.60
2018-09-27T08:09:24.406Z,10.70
2018-09-27T08:11:28.882Z,10.90
2018-09-27T08:13:33.390Z,11.00
2018-09-27T08:15:38.519Z,11.10
2018-09-27T08:17:42.968Z,11.20
2018-09-27T08:19:47.433Z,11.40
2018-09-27T08:21:51.860Z,11.50
2018-09-27T08:23:56.323Z,11.60
2018-09-27T08:26:01.533Z,11.70
2018-09-27T08:28:06.505Z,11.80
2018-09-27T08:30:11.006Z,12.00
2018-09-27T08:32:15.470Z,12.10
2018-09-27T08:34:19.918Z,12.30
2018-09-27T08:36:24.370Z,12.50
2018-09-27T08:38:28.944Z,12.60
2018-09-27T08:40:33.460Z,12.70
2018-09-27T08:42:37.935Z,12.90
2018-09-27T08:44:42.465Z,13.00
2018-09-27T08:46:46.920Z,13.20
2018-09-27T08:48:51.375Z,13.30
2018-09-27T08:50:55.875Z,13.50
2018-09-27T08:53:01.464Z,13.60
2018-09-27T08:55:06.346Z,13.80
2018-09-27T08:57:10.832Z,13.90
2018-09-27T08:59:15.387Z,14.10
2018-09-27T09:01:19.845Z,14.20
2018-09-27T09:03:24.402Z,14.40
2018-09-27T09:05:28.901Z,14.50
2018-09-27T09:07:33.373Z,14.70
2018-09-27T09:09:37.940Z,14.90
2018-09-27T09:11:42.462Z,15.00
2018-09-27T09:13:46.970Z,15.20
2018-09-27T09:15:51.401Z,15.40
2018-09-27T09:17:55.879Z,15.60
2018-09-27T09:20:00.351Z,15.70
2018-09-27T09:22:04.939Z,15.90
2018-09-27T09:24:09.826Z,16.10
2018-09-27T09:26:14.271Z,16.20
2018-09-27T09:28:20.084Z,16.40
2018-09-27T09:30:24.529Z,16.60
2018-09-27T09:32:29.135Z,16.70
2018-09-27T09:34:33.671Z,16.80
2018-09-27T09:36:38.221Z,17.00
2018-09-27T09:38:42.828Z,17.20
2018-09-27T09:40:48.298Z,17.30
2018-09-27T09:42:52.767Z,17.50
2018-09-27T09:44:57.293Z,17.60
2018-09-27T09:47:01.791Z,17.80
2018-09-27T09:49:06.371Z,18.00
2018-09-27T09:51:10.837Z,18.10
2018-09-27T09:53:15.368Z,18.30
2018-09-27T09:55:19.910Z,18.40
2018-09-27T09:57:25.020Z,18.60
2018-09-27T09:59:29.517Z,18.80
2018-09-27T10:01:34.006Z,18.90
2018-09-27T10:03:38.610Z,19.10
2018-09-27T10:05:43.100Z,19.30
2018-09-27T10:07:48.473Z,19.50
2018-09-27T10:09:52.937Z,19.60
2018-09-27T10:11:57.435Z,19.80
2018-09-27T10:14:02.206Z,19.90
2018-09-27T10:16:06.675Z,20.10
2018-09-27T10:18:11.505Z,20.30
2018-09-27T10:20:16.075Z,20.50
2018-09-27T10:22:22.103Z,20.70
2018-09-27T10:24:28.629Z,20.80
2018-09-27T10:26:35.336Z,21.00
2018-09-27T10:28:39.836Z,21.20
2018-09-27T10:30:44.419Z,21.40
2018-09-27T10:32:48.863Z,21.60
2018-09-27T10:34:53.403Z,21.80
2018-09-27T10:36:57.887Z,21.90
2018-09-27T10:39:02.429Z,22.10
2018-09-27T10:41:07.068Z,22.30
2018-09-27T10:43:11.499Z,22.40
2018-09-27T10:45:16.032Z,22.60
2018-09-27T10:47:20.505Z,22.80
2018-09-27T10:49:25.015Z,22.90
2018-09-27T10:51:30.758Z,23.00
2018-09-27T10:53:35.258Z,23.20
2018-09-27T10:55:39.740Z,23.40
2018-09-27T10:57:44.206Z,23.50
2018-09-27T10:59:48.813Z,23.60
2018-09-27T11:01:53.262Z,23.80
2018-09-27T11:03:57.709Z,23.90
2018-09-27T11:06:02.267Z,24.10
2018-09-27T11:08:06.959Z,24.20
2018-09-27T11:10:11.442Z,24.30
2018-09-27T11:12:15.973Z,24.50
2018-09-27T11:14:20.463Z,24.60
2018-09-27T11:16:24.913Z,24.70
2018-09-27T11:18:29.387Z,24.90
2018-09-27T11:20:34.282Z,25.00
2018-09-27T11:22:38.774Z,25.10
2018-09-27T11:24:43.263Z,25.20
2018-09-27T11:26:47.799Z,25.30
2018-09-27T11:28:57.561Z,25.40
2018-09-27T11:31:07.302Z,25.50
2018-09-27T11:33:11.856Z,25.60
2018-09-27T11:35:17.124Z,25.70
2018-09-27T11:37:21.618Z,25.90
2018-09-27T11:39:26.123Z,25.90
2018-09-27T11:41:30.580Z,26.00
2018-09-27T11:43:36.475Z,26.10
2018-09-27T11:45:41.179Z,26.20
2018-09-27T11:47:45.748Z,26.20
2018-09-27T11:49:51.058Z,26.30
2018-09-27T11:51:56.482Z,26.30
2018-09-27T11:54:00.987Z,26.40
2018-09-27T11:56:05.618Z,26.50
2018-09-27T11:58:10.018Z,26.50
2018-09-27T12:00:15.157Z,26.50
2018-09-27T12:02:20.776Z,26.60
2018-09-27T12:04:25.288Z,26.60
2018-09-27T12:06:29.764Z,26.70
2018-09-27T12:08:34.270Z,26.70
2018-09-27T12:10:39.856Z,26.70
2018-09-27T12:12:44.307Z,26.80
2018-09-27T12:14:48.754Z,26.80
2018-09-27T12:16:53.235Z,26.80
2018-09-27T12:18:57.683Z,26.80
2018-09-27T12:25:40.771Z,26.90
2018-09-27T12:27:45.222Z,26.90
2018-09-27T12:29:49.696Z,26.90
2018-09-27T12:31:56.085Z,26.90
2018-09-27T12:34:00.596Z,26.90
2018-09-27T12:36:05.696Z,26.90
2018-09-27T12:38:10.167Z,27.00
2018-09-27T12:40:16.583Z,27.00
2018-09-27T12:42:21.104Z,27.00
2018-09-27T12:44:25.572Z,27.10
2018-09-27T12:46:30.131Z,27.10
2018-09-27T12:48:34.623Z,27.20
2018-09-27T12:50:41.207Z,27.20
2018-09-27T12:52:45.694Z,27.20
2018-09-27T12:54:50.607Z,27.30
2018-09-27T12:56:55.088Z,27.30
2018-09-27T12:58:59.566Z,27.30
2018-09-27T13:01:04.195Z,27.40
2018-09-27T13:03:08.639Z,27.40
2018-09-27T13:05:13.232Z,27.40
2018-09-27T13:07:17.755Z,27.50
2018-09-27T13:09:22.344Z,27.50
2018-09-27T13:11:26.779Z,27.50
2018-09-27T13:13:31.976Z,27.50
2018-09-27T13:15:36.362Z,27.50
2018-09-27T13:17:41.655Z,27.50
2018-09-27T13:19:46.132Z,27.60
2018-09-27T13:21:50.631Z,27.60
2018-09-27T13:23:55.390Z,27.60
2018-09-27T13:25:59.923Z,27.70
2018-09-27T13:28:04.436Z,27.70
2018-09-27T13:30:08.957Z,27.70
2018-09-27T13:32:13.405Z,27.70
2018-09-27T13:34:17.881Z,27.80
2018-09-27T13:36:22.351Z,27.80
2018-09-27T13:38:26.827Z,27.80
2018-09-27T13:40:31.350Z,27.80
2018-09-27T13:42:35.946Z,27.90
2018-09-27T13:44:40.498Z,27.90
2018-09-27T13:46:44.968Z,27.90
2018-09-27T13:48:49.442Z,28.00
2018-09-27T13:50:54.115Z,28.00
2018-09-27T13:52:58.638Z,28.00
2018-09-27T13:55:03.153Z,28.00
2018-09-27T13:57:07.929Z,28.00
2018-09-27T13:59:12.243Z,28.00
2018-09-27T14:01:16.836Z,27.90
2018-09-27T14:03:21.824Z,27.90
2018-09-27T14:05:26.309Z,27.80
2018-09-27T14:07:30.842Z,27.90
2018-09-27T14:09:35.351Z,27.90
2018-09-27T14:11:39.991Z,27.80
2018-09-27T14:13:44.875Z,27.80
2018-09-27T14:15:49.379Z,27.80
2018-09-27T14:17:53.820Z,27.70
2018-09-27T14:19:58.475Z,27.70
2018-09-27T14:22:02.964Z,27.70
2018-09-27T14:24:07.505Z,27.70
2018-09-27T14:26:12.024Z,27.70
2018-09-27T14:28:16.593Z,27.60
2018-09-27T14:30:21.107Z,27.60
2018-09-27T14:32:25.744Z,27.60
2018-09-27T14:34:30.368Z,27.50
2018-09-27T14:36:34.934Z,27.50
2018-09-27T14:38:39.395Z,27.50
2018-09-27T14:40:43.887Z,27.40
2018-09-27T14:42:48.344Z,27.40
2018-09-27T14:44:52.837Z,27.40
2018-09-27T14:46:57.340Z,27.40
2018-09-27T14:49:01.898Z,27.30
2018-09-27T14:51:06.387Z,27.30
2018-09-27T14:53:11.151Z,27.30
2018-09-27T14:55:15.686Z,27.20
2018-09-27T14:57:20.183Z,27.20
2018-09-27T14:59:24.672Z,27.10
2018-09-27T15:01:29.130Z,27.00
2018-09-27T15:03:33.785Z,27.00
2018-09-27T15:05:38.357Z,26.90
2018-09-27T15:07:42.968Z,26.90
2018-09-27T15:09:47.495Z,26.80
2018-09-27T15:11:51.950Z,26.70
2018-09-27T15:13:56.431Z,26.70
2018-09-27T15:16:01.072Z,26.60
2018-09-27T15:18:05.618Z,26.50
2018-09-27T15:20:10.067Z,26.40
2018-09-27T15:22:14.591Z,26.40
2018-09-27T15:24:19.097Z,26.30
2018-09-27T15:26:23.583Z,26.20
2018-09-27T15:28:28.635Z,26.20
2018-09-27T15:30:33.432Z,26.00
2018-09-27T15:32:37.960Z,26.00
2018-09-27T15:34:42.879Z,25.90
2018-09-27T15:36:47.343Z,25.80
2018-09-27T15:38:51.867Z,25.70
2018-09-27T15:40:56.347Z,25.60
2018-09-27T15:43:00.823Z,25.50
2018-09-27T15:45:05.410Z,25.40
2018-09-27T15:47:09.886Z,25.20
2018-09-27T15:49:14.415Z,25.10
2018-09-27T15:51:18.949Z,25.00
2018-09-27T15:53:23.438Z,24.90
2018-09-27T15:55:27.935Z,24.70
2018-09-27T15:57:32.406Z,24.60
2018-09-27T15:59:36.870Z,24.40
2018-09-27T16:01:41.394Z,24.20
2018-09-27T16:03:45.875Z,24.10
2018-09-27T16:05:50.383Z,23.90
2018-09-27T16:07:54.916Z,23.80
2018-09-27T16:09:59.451Z,23.60
2018-09-27T16:12:03.989Z,23.40
2018-09-27T16:14:08.494Z,23.30
2018-09-27T16:16:13.030Z,23.20
2018-09-27T16:18:17.488Z,23.00
2018-09-27T16:20:22.009Z,22.90
2018-09-27T16:22:26.907Z,22.70
2018-09-27T16:24:31.395Z,22.50
2018-09-27T16:26:35.851Z,22.40
2018-09-27T16:28:40.363Z,22.20
2018-09-27T16:30:44.860Z,22.10
2018-09-27T16:32:49.347Z,21.90
2018-09-27T16:34:53.822Z,21.80
2018-09-27T16:36:58.247Z,21.70
2018-09-27T16:39:02.765Z,21.50
2018-09-27T16:41:07.259Z,21.40
2018-09-27T16:43:11.963Z,21.30
2018-09-27T16:45:16.463Z,21.20
2018-09-27T16:47:21.015Z,21.00
2018-09-27T16:49:25.444Z,20.90
2018-09-27T16:51:30.036Z,20.80
2018-09-27T16:53:34.643Z,20.70
2018-09-27T16:55:39.598Z,20.60
2018-09-27T16:57:44.029Z,20.50
2018-09-27T16:59:48.719Z,20.40
2018-09-27T17:01:53.299Z,20.30
2018-09-27T17:03:57.781Z,20.20
2018-09-27T17:06:02.874Z,20.10
2018-09-27T17:08:07.399Z,20.00
2018-09-27T17:10:12.470Z,19.90
2018-09-27T17:12:16.918Z,19.80
2018-09-27T17:14:21.391Z,19.80
2018-09-27T17:16:26.019Z,19.60
2018-09-27T17:18:30.447Z,19.50
2018-09-27T17:20:34.919Z,19.50
2018-09-27T17:22:39.517Z,19.40
2018-09-27T17:24:44.274Z,19.30
2018-09-27T17:26:48.639Z,19.20
2018-09-27T17:28:53.148Z,19.20
2018-09-27T17:30:57.652Z,19.10
2018-09-27T17:33:02.295Z,19.00
2018-09-27T17:35:06.891Z,18.90
2018-09-27T17:37:11.376Z,18.80
2018-09-27T17:39:16.098Z,18.80
2018-09-27T17:41:20.552Z,18.70
2018-09-27T17:43:25.027Z,18.60
2018-09-27T17:45:29.579Z,18.50
2018-09-27T17:47:34.148Z,18.40
2018-09-27T17:49:38.738Z,18.30
2018-09-27T17:51:43.173Z,18.20
2018-09-27T17:53:47.622Z,18.10
2018-09-27T17:55:52.221Z,18.00
2018-09-27T17:57:56.713Z,17.90
2018-09-27T18:00:01.263Z,17.90
2018-09-27T18:02:05.778Z,17.80
2018-09-27T18:04:10.228Z,17.70
2018-09-27T18:06:14.738Z,17.60
2018-09-27T18:08:19.285Z,17.60
2018-09-27T18:10:23.851Z,17.50
2018-09-27T18:12:28.366Z,17.40
2018-09-27T18:14:32.840Z,17.30
2018-09-27T18:16:37.381Z,17.20
2018-09-27T18:18:41.831Z,17.20
2018-09-27T18:20:46.369Z,17.10
2018-09-27T18:22:51.547Z,17.00
2018-09-27T18:24:56.031Z,16.90
2018-09-27T18:27:00.769Z,16.90
2018-09-27T18:29:05.227Z,16.80
2018-09-27T18:31:09.778Z,16.70
2018-09-27T18:33:14.269Z,16.60
2018-09-27T18:35:18.855Z,16.60
2018-09-27T18:37:23.412Z,16.50
2018-09-27T18:39:27.823Z,16.50
2018-09-27T18:41:32.295Z,16.40
2018-09-27T18:43:36.787Z,16.30
2018-09-27T18:45:41.254Z,16.30
2018-09-27T18:47:45.710Z,16.20
2018-09-27T18:49:50.220Z,16.10
2018-09-27T18:51:54.819Z,16.10
2018-09-27T18:53:59.315Z,16.00
2018-09-27T18:56:03.804Z,16.00
2018-09-27T18:58:08.306Z,15.90
2018-09-27T19:00:12.794Z,15.80
2018-09-27T19:02:17.272Z,15.80
2018-09-27T19:04:21.817Z,15.70
2018-09-27T19:06:26.298Z,15.70
2018-09-27T19:08:30.752Z,15.60
2018-09-27T19:10:35.275Z,15.60
2018-09-27T19:12:39.715Z,15.60
2018-09-27T19:14:44.231Z,15.50
2018-09-27T19:16:48.747Z,15.50
2018-09-27T19:18:53.262Z,15.40
2018-09-27T19:20:57.922Z,15.40
2018-09-27T19:23:02.394Z,15.30
2018-09-27T19:25:06.942Z,15.30
2018-09-27T19:27:11.470Z,15.20
2018-09-27T19:29:16.001Z,15.20
2018-09-27T19:31:20.497Z,15.10
2018-09-27T19:33:25.014Z,15.10
2018-09-27T19:35:29.566Z,15.00
2018-09-27T19:37:35.194Z,15.00
2018-09-27T19:39:39.667Z,14.90
2018-09-27T19:41:44.143Z,14.90
2018-09-27T19:43:48.622Z,14.80
2018-09-27T19:45:53.100Z,14.70
2018-09-27T19:47:57.712Z,14.70
2018-09-27T19:50:02.247Z,14.70
2018-09-27T19:52:07.051Z,14.60
2018-09-27T19:54:11.759Z,14.60
2018-09-27T19:56:16.832Z,14.50
2018-09-27T19:58:21.328Z,14.50
2018-09-27T20:00:25.823Z,14.40
2018-09-27T20:02:30.334Z,14.40
2018-09-27T20:04:34.809Z,14.30
2018-09-27T20:06:39.336Z,14.30
2018-09-27T20:08:43.942Z,14.20
2018-09-27T20:10:48.378Z,14.20
2018-09-27T20:12:52.855Z,14.10
2018-09-27T20:14:57.498Z,14.10
2018-09-27T20:17:02.286Z,14.10
2018-09-27T20:19:07.281Z,14.00
2018-09-27T20:21:11.787Z,14.00
2018-09-27T20:23:16.275Z,13.90
2018-09-27T20:25:20.772Z,13.90
2018-09-27T20:27:25.245Z,13.80
2018-09-27T20:29:29.735Z,13.80
2018-09-27T20:31:34.411Z,13.70
2018-09-27T20:33:39.376Z,13.70
2018-09-27T20:35:43.894Z,13.60
2018-09-27T20:37:48.382Z,13.60
2018-09-27T20:39:52.866Z,13.60
2018-09-27T20:41:57.359Z,13.50
2018-09-27T20:44:01.883Z,13.50
2018-09-27T20:46:07.089Z,13.50
2018-09-27T20:48:11.523Z,13.40
2018-09-27T20:50:15.995Z,13.40
2018-09-27T20:52:20.503Z,13.40
2018-09-27T20:54:24.999Z,13.30
2018-09-27T20:56:29.478Z,13.30
2018-09-27T20:58:33.997Z,13.30
2018-09-27T21:00:38.530Z,13.20
2018-09-27T21:02:43.092Z,13.20
2018-09-27T21:04:47.590Z,13.20
2018-09-27T21:06:52.043Z,13.10
2018-09-27T21:08:56.546Z,13.10
2018-09-27T21:11:01.096Z,13.10
2018-09-27T21:13:05.623Z,13.00
2018-09-27T21:15:10.116Z,13.00
2018-09-27T21:17:14.627Z,13.00
2018-09-27T21:19:19.085Z,13.00
2018-09-27T21:21:23.555Z,12.90
2018-09-27T21:23:28.155Z,12.90
2018-09-27T21:25:32.673Z,12.80
2018-09-27T21:27:37.161Z,12.80
2018-09-27T21:29:41.957Z,12.80
2018-09-27T21:31:46.591Z,12.80
2018-09-27T21:33:51.332Z,12.70
2018-09-27T21:35:55.840Z,12.70
2018-09-27T21:38:00.303Z,12.70
2018-09-27T21:40:05.215Z,12.70
2018-09-27T21:42:09.718Z,12.70
2018-09-27T21:44:14.289Z,12.60
2018-09-27T21:46:18.943Z,12.60
2018-09-27T21:48:23.396Z,12.60
2018-09-27T21:50:27.908Z,12.50
2018-09-27T21:52:32.383Z,12.50
2018-09-27T21:54:36.828Z,12.50
2018-09-27T21:56:41.306Z,12.40
2018-09-27T21:58:46.073Z,12.40
2018-09-27T22:00:52.051Z,12.30
2018-09-27T22:02:56.532Z,12.30
2018-09-27T22:05:01.011Z,12.30
2018-09-27T22:07:05.508Z,12.20
2018-09-27T22:09:11.171Z,12.20
2018-09-27T22:11:15.660Z,12.20
2018-09-27T22:13:20.222Z,12.10
2018-09-27T22:15:24.807Z,12.10
2018-09-27T22:17:29.338Z,12.10
2018-09-27T22:19:34.287Z,12.10
2018-09-27T22:21:38.851Z,12.00
2018-09-27T22:23:43.356Z,12.00
2018-09-27T22:25:47.826Z,11.90
2018-09-27T22:27:52.306Z,11.90
2018-09-27T22:29:56.835Z,11.90
2018-09-27T22:32:01.339Z,11.90
2018-09-27T22:34:06.066Z,11.80
2018-09-27T22:36:10.551Z,11.80
2018-09-27T22:38:15.106Z,11.80
2018-09-27T22:40:19.635Z,11.70
2018-09-27T22:42:24.095Z,11.70
2018-09-27T22:44:28.571Z,11.70
2018-09-27T22:46:33.042Z,11.70
2018-09-27T22:48:38.144Z,11.60
2018-09-27T22:50:42.621Z,11.60
2018-09-27T22:52:47.115Z,11.60
2018-09-27T22:54:51.590Z,11.60
2018-09-27T22:56:56.097Z,11.50
2018-09-27T22:59:00.675Z,11.50
2018-09-27T23:01:05.208Z,11.50
2018-09-27T23:03:09.702Z,11.40
2018-09-27T23:05:14.183Z,11.40
2018-09-27T23:07:18.665Z,11.40
2018-09-27T23:09:23.845Z,11.40
2018-09-27T23:11:32.138Z,11.30
2018-09-27T23:13:36.639Z,11.30
2018-09-27T23:15:41.099Z,11.30
2018-09-27T23:17:45.622Z,11.30
2018-09-27T23:19:50.183Z,11.20
2018-09-27T23:21:54.679Z,11.20
2018-09-27T23:23:59.189Z,11.20
2018-09-27T23:26:03.753Z,11.20
2018-09-27T23:28:08.427Z,11.20
2018-09-27T23:30:12.874Z,11.10
2018-09-27T23:32:17.366Z,11.10
2018-09-27T23:34:21.825Z,11.10
2018-09-27T23:36:26.315Z,11.10
2018-09-27T23:38:30.827Z,11.10
2018-09-27T23:40:35.324Z,11.00
2018-09-27T23:42:39.794Z,11.00
2018-09-27T23:44:44.273Z,11.00
2018-09-27T23:46:48.730Z,11.00
2018-09-27T23:48:53.222Z,10.90
2018-09-27T23:50:57.742Z,10.90
2018-09-27T23:53:02.210Z,10.90
2018-09-27T23:55:07.090Z,10.90
2018-09-27T23:57:11.590Z,10.80
2018-09-27T23:59:16.112Z,10.80
